Terminal Aerodrome Forecast
Issued by NWS

Home | Current Version | Previous Version | Graphics & Text | Print | Product List | Glossary Off
Versions: 1 2 3 4 5 6 7 8 9 10 11 12 13 14 15 16

000
FTUS43 KDDC 242214 AAA
TAFHYS
TAF AMD
KHYS 242214Z 2422/2518 06014KT P6SM SCT050
     FM250600 02005KT P6SM OVC120
     FM250900 35007KT 3SM BR VCSH OVC035=

USA.gov is the U.S. government's official web portal to all federal, state and local government web resources and services.